createdAt,value
2019-02-03T00:00:08.996Z,107.33
2019-02-03T00:02:37.782Z,117.83
2019-02-03T00:05:08.221Z,114.23
2019-02-03T00:07:36.611Z,114.10
2019-02-03T00:10:08.180Z,122.10
2019-02-03T00:12:36.586Z,115.53
2019-02-03T00:15:08.037Z,117.70
2019-02-03T00:17:36.764Z,111.10
2019-02-03T00:20:08.528Z,124.13
2019-02-03T00:22:37.445Z,109.07
2019-02-03T00:25:08.960Z,111.10
2019-02-03T00:27:37.347Z,124.60
2019-02-03T00:30:09.030Z,108.67
2019-02-03T00:32:37.418Z,106.93
2019-02-03T00:35:06.946Z,117.33
2019-02-03T00:37:35.926Z,108.93
2019-02-03T00:40:07.212Z,100.63
2019-02-03T00:42:35.821Z,110.07
2019-02-03T00:45:06.506Z,109.37
2019-02-03T00:47:35.138Z,105.17
2019-02-03T00:50:05.957Z,113.17
2019-02-03T00:52:35.000Z,111.10
2019-02-03T00:55:03.393Z,118.73
2019-02-03T00:57:32.391Z,112.20
2019-02-03T01:00:01.320Z,116.60
2019-02-03T01:02:30.086Z,107.23
2019-02-03T01:04:58.487Z,101.53
2019-02-03T01:07:27.904Z,110.90
2019-02-03T01:09:56.572Z,109.23
2019-02-03T01:12:25.291Z,123.70
2019-02-03T01:14:53.648Z,112.97
2019-02-03T01:17:22.639Z,113.00
2019-02-03T01:19:51.326Z,100.67
2019-02-03T01:22:19.732Z,112.33
2019-02-03T01:24:48.595Z,112.73
2019-02-03T01:27:17.276Z,109.60
2019-02-03T01:29:45.993Z,104.07
2019-02-03T01:32:14.661Z,101.20
2019-02-03T01:34:43.114Z,90.63
2019-02-03T01:37:11.923Z,91.73
2019-02-03T01:39:40.606Z,91.80
2019-02-03T01:42:09.399Z,88.73
2019-02-03T01:44:37.787Z,87.70
2019-02-03T01:47:06.463Z,84.53
2019-02-03T01:49:34.843Z,86.27
2019-02-03T01:52:03.318Z,88.07
2019-02-03T01:54:31.718Z,85.50
2019-02-03T01:57:00.389Z,78.77
2019-02-03T01:59:29.264Z,88.50
2019-02-03T02:01:57.656Z,104.33
2019-02-03T02:04:26.053Z,92.60
2019-02-03T02:06:54.454Z,98.23
2019-02-03T02:09:23.101Z,91.60
2019-02-03T02:11:51.492Z,100.40
2019-02-03T02:14:20.274Z,106.20
2019-02-03T02:16:49.005Z,113.37
2019-02-03T02:19:17.398Z,95.10
2019-02-03T02:21:45.808Z,100.37
2019-02-03T02:24:14.218Z,109.73
2019-02-03T02:26:42.707Z,110.53
2019-02-03T02:29:11.571Z,101.20
2019-02-03T02:31:39.978Z,100.53
2019-02-03T02:34:08.391Z,106.53
2019-02-03T02:36:36.779Z,114.87
2019-02-03T02:39:07.227Z,110.13
2019-02-03T02:41:35.908Z,117.93
2019-02-03T02:44:04.728Z,114.20
2019-02-03T02:46:33.134Z,120.07
2019-02-03T02:49:01.521Z,116.47
2019-02-03T02:51:29.911Z,124.50
2019-02-03T02:53:58.993Z,122.63
2019-02-03T02:56:27.822Z,120.27
2019-02-03T02:58:56.484Z,115.93
2019-02-03T03:01:25.310Z,126.00
2019-02-03T03:03:53.807Z,119.23
2019-02-03T03:06:22.270Z,120.70
2019-02-03T03:08:50.962Z,122.90
2019-02-03T03:11:19.476Z,112.47
2019-02-03T03:13:48.174Z,119.27
2019-02-03T03:16:16.578Z,124.97
2019-02-03T03:18:45.084Z,130.03
2019-02-03T03:21:13.775Z,126.67
2019-02-03T03:23:42.163Z,115.47
2019-02-03T03:26:10.837Z,112.43
2019-02-03T03:28:39.226Z,122.00
2019-02-03T03:31:07.643Z,114.27
2019-02-03T03:33:36.035Z,110.70
2019-02-03T03:36:05.577Z,111.17
2019-02-03T03:38:33.962Z,122.00
2019-02-03T03:41:02.474Z,118.17
2019-02-03T03:43:30.866Z,113.17
2019-02-03T03:45:59.257Z,116.43
2019-02-03T03:48:27.747Z,117.70
2019-02-03T03:50:56.193Z,130.00
2019-02-03T03:53:25.061Z,114.60
2019-02-03T03:55:53.695Z,123.97
2019-02-03T03:58:22.089Z,119.03
2019-02-03T04:00:50.476Z,120.40
2019-02-03T04:03:19.186Z,140.57
2019-02-03T04:05:47.970Z,133.30
2019-02-03T04:08:16.382Z,123.87
2019-02-03T04:10:44.858Z,119.00
2019-02-03T04:13:13.341Z,134.97
2019-02-03T04:15:42.000Z,141.33
2019-02-03T04:18:10.403Z,131.70
2019-02-03T04:20:38.947Z,136.37
2019-02-03T04:23:07.336Z,133.43
2019-02-03T04:25:35.740Z,140.27
2019-02-03T04:28:04.816Z,130.87
2019-02-03T04:30:33.215Z,143.83
2019-02-03T04:33:01.622Z,133.60
2019-02-03T04:35:30.014Z,138.43
2019-02-03T04:37:58.403Z,140.03
2019-02-03T04:40:27.124Z,128.70
2019-02-03T04:42:55.511Z,117.57
2019-02-03T04:45:24.062Z,143.93
2019-02-03T04:47:52.776Z,138.80
2019-02-03T04:50:22.146Z,134.20
2019-02-03T04:52:50.599Z,134.27
2019-02-03T04:55:21.278Z,122.27
2019-02-03T04:57:49.732Z,132.90
2019-02-03T05:00:23.417Z,137.33
2019-02-03T05:02:52.209Z,119.63
2019-02-03T05:05:20.985Z,138.03
2019-02-03T05:07:49.425Z,143.83
2019-02-03T05:10:18.558Z,129.80
2019-02-03T05:12:47.162Z,143.10
2019-02-03T05:15:17.590Z,135.00
2019-02-03T05:17:45.997Z,136.17
2019-02-03T05:20:17.278Z,139.30
2019-02-03T05:22:45.943Z,134.23
2019-02-03T05:25:14.902Z,136.30
2019-02-03T05:27:43.531Z,130.07
2019-02-03T05:30:26.650Z,141.73
2019-02-03T05:32:55.539Z,145.27
2019-02-03T05:35:23.923Z,147.50
2019-02-03T05:37:52.424Z,139.43
2019-02-03T05:40:20.911Z,138.40
2019-02-03T05:42:49.302Z,157.03
2019-02-03T05:45:20.343Z,135.80
2019-02-03T05:47:50.217Z,133.57
2019-02-03T05:50:21.532Z,128.87
2019-02-03T05:52:50.279Z,129.27
2019-02-03T05:55:19.839Z,120.10
2019-02-03T05:57:48.327Z,134.70
2019-02-03T06:00:21.391Z,131.90
2019-02-03T06:02:49.891Z,133.30
2019-02-03T06:05:18.552Z,149.07
2019-02-03T06:07:46.948Z,136.77
2019-02-03T06:10:19.372Z,124.30
2019-02-03T06:12:48.029Z,129.20
2019-02-03T06:15:17.252Z,142.60
2019-02-03T06:17:45.642Z,133.40
2019-02-03T06:20:20.057Z,133.03
2019-02-03T06:22:48.930Z,137.00
2019-02-03T06:25:17.585Z,125.47
2019-02-03T06:27:46.328Z,127.87
2019-02-03T06:30:23.440Z,137.20
2019-02-03T06:32:51.847Z,137.47
2019-02-03T06:35:20.323Z,141.03
2019-02-03T06:37:48.782Z,133.23
2019-02-03T06:40:17.342Z,139.77
2019-02-03T06:42:46.304Z,134.43
2019-02-03T06:45:19.396Z,140.40
2019-02-03T06:47:47.789Z,140.53
2019-02-03T06:50:16.450Z,138.43
2019-02-03T06:52:44.844Z,124.27
2019-02-03T06:55:13.532Z,132.80
2019-02-03T06:57:41.972Z,127.30
2019-02-03T07:00:13.124Z,128.83
2019-02-03T07:02:41.546Z,121.67
2019-02-03T07:05:10.704Z,130.47
2019-02-03T07:07:39.099Z,131.83
2019-02-03T07:10:10.389Z,129.87
2019-02-03T07:12:38.806Z,135.83
2019-02-03T07:15:09.638Z,133.00
2019-02-03T07:17:38.351Z,115.20
2019-02-03T07:20:14.871Z,130.97
2019-02-03T07:22:43.278Z,121.80
2019-02-03T07:25:11.851Z,119.10
2019-02-03T07:27:40.250Z,123.07
2019-02-03T07:30:17.007Z,118.60
2019-02-03T07:32:45.380Z,118.57
2019-02-03T07:35:13.845Z,111.47
2019-02-03T07:37:42.231Z,110.90
2019-02-03T07:40:16.425Z,112.27
2019-02-03T07:42:44.882Z,107.60
2019-02-03T07:45:13.665Z,105.30
2019-02-03T07:47:42.653Z,107.07
2019-02-03T07:50:13.698Z,100.50
2019-02-03T07:52:42.159Z,93.70
2019-02-03T07:55:12.916Z,92.87
2019-02-03T07:57:41.620Z,88.17
2019-02-03T08:00:15.338Z,106.13
2019-02-03T08:02:43.731Z,93.23
2019-02-03T08:05:12.694Z,91.97
2019-02-03T08:07:41.081Z,85.30
2019-02-03T08:10:23.886Z,88.13
2019-02-03T08:12:42.623Z,85.80
2019-02-03T08:15:19.103Z,80.37
2019-02-03T08:17:47.847Z,81.43
2019-02-03T08:20:19.019Z,85.27
2019-02-03T08:22:47.563Z,85.87
2019-02-03T08:25:17.195Z,80.37
2019-02-03T08:27:45.861Z,82.10
2019-02-03T08:30:23.899Z,74.43
2019-02-03T08:32:52.292Z,70.43
2019-02-03T08:35:20.838Z,65.83
2019-02-03T08:37:49.246Z,60.53
2019-02-03T08:40:22.501Z,66.50
2019-02-03T08:42:50.891Z,68.83
2019-02-03T08:45:21.339Z,68.63
2019-02-03T08:47:49.737Z,60.93
2019-02-03T08:50:25.329Z,63.73
2019-02-03T08:52:54.062Z,50.00
2019-02-03T08:55:22.564Z,51.70
2019-02-03T08:57:51.068Z,49.57
2019-02-03T09:00:33.849Z,54.70
2019-02-03T09:03:02.236Z,64.73
2019-02-03T09:05:31.042Z,58.70
2019-02-03T09:08:00.412Z,65.53
2019-02-03T09:10:28.793Z,58.10
2019-02-03T09:12:57.188Z,46.70
2019-02-03T09:15:27.339Z,49.57
2019-02-03T09:17:55.721Z,40.47
2019-02-03T09:20:29.810Z,38.90
2019-02-03T09:22:58.610Z,40.73
2019-02-03T09:25:27.094Z,33.77
2019-02-03T09:27:55.747Z,48.80
2019-02-03T09:30:29.040Z,37.83
2019-02-03T09:33:00.569Z,31.77
2019-02-03T09:35:29.379Z,35.47
2019-02-03T09:37:58.804Z,36.07
2019-02-03T09:40:29.843Z,36.77
2019-02-03T09:42:58.333Z,32.87
2019-02-03T09:45:30.579Z,33.43
2019-02-03T09:47:58.960Z,34.47
2019-02-03T09:50:32.338Z,33.30
2019-02-03T09:53:04.184Z,33.03
2019-02-03T09:55:32.581Z,34.77
2019-02-03T09:58:01.934Z,34.20
2019-02-03T10:00:35.700Z,30.57
2019-02-03T10:03:06.043Z,34.27
2019-02-03T10:05:37.068Z,37.57
2019-02-03T10:08:05.946Z,35.50
2019-02-03T10:10:36.648Z,33.70
2019-02-03T10:13:05.712Z,28.20
2019-02-03T10:15:34.193Z,27.67
2019-02-03T10:18:02.802Z,29.93
2019-02-03T10:20:31.209Z,35.50
2019-02-03T10:22:59.587Z,32.70
2019-02-03T10:25:30.199Z,30.57
2019-02-03T10:27:58.908Z,28.83
2019-02-03T10:30:27.775Z,33.10
2019-02-03T10:32:57.477Z,30.27
2019-02-03T10:35:30.645Z,31.50
2019-02-03T10:37:59.332Z,31.10
2019-02-03T10:40:30.082Z,33.40
2019-02-03T10:42:59.927Z,34.07
2019-02-03T10:45:28.545Z,26.70
2019-02-03T10:47:57.002Z,30.07
2019-02-03T10:50:28.701Z,30.67
2019-02-03T10:52:57.226Z,32.83
2019-02-03T10:55:26.246Z,31.30
2019-02-03T10:57:54.812Z,32.27
2019-02-03T11:00:31.777Z,28.63
2019-02-03T11:03:00.709Z,29.73
2019-02-03T11:05:35.519Z,22.83
2019-02-03T11:08:04.172Z,25.27
2019-02-03T11:10:32.583Z,23.73
2019-02-03T11:13:01.502Z,23.20
2019-02-03T11:15:30.607Z,21.60
2019-02-03T11:17:59.298Z,20.60
2019-02-03T11:20:34.481Z,17.97
2019-02-03T11:23:06.640Z,19.10
2019-02-03T11:25:42.504Z,23.30
2019-02-03T11:28:09.705Z,20.80
2019-02-03T11:30:39.442Z,17.90
2019-02-03T11:33:09.692Z,20.60
2019-02-03T11:35:38.770Z,19.10
2019-02-03T11:38:07.412Z,18.43
2019-02-03T11:40:37.969Z,18.97
2019-02-03T11:43:07.713Z,17.50
2019-02-03T11:45:41.237Z,17.93
2019-02-03T11:48:15.075Z,17.63
2019-02-03T11:50:45.018Z,19.80
2019-02-03T11:53:16.087Z,18.33
2019-02-03T11:55:44.485Z,15.80
2019-02-03T11:58:13.256Z,16.50
2019-02-03T12:00:41.972Z,16.00
2019-02-03T12:03:11.280Z,16.03
2019-02-03T12:05:39.814Z,15.80
2019-02-03T12:08:09.355Z,18.00
2019-02-03T12:10:38.249Z,16.57
2019-02-03T12:13:07.675Z,15.17
2019-02-03T12:15:36.837Z,17.07
2019-02-03T12:18:06.841Z,15.10
2019-02-03T12:20:35.755Z,14.40
2019-02-03T12:23:04.919Z,14.60
2019-02-03T12:25:36.188Z,14.63
2019-02-03T12:28:06.254Z,15.10
2019-02-03T12:30:35.478Z,12.57
2019-02-03T12:33:05.399Z,12.13
2019-02-03T12:35:34.232Z,12.17
2019-02-03T12:38:02.695Z,12.13
2019-02-03T12:40:33.677Z,11.80
2019-02-03T12:43:02.262Z,13.03
2019-02-03T12:45:30.842Z,12.33
2019-02-03T12:47:59.503Z,11.10
2019-02-03T12:50:28.398Z,12.37
2019-02-03T12:52:57.075Z,12.30
2019-02-03T12:55:31.738Z,12.50
2019-02-03T12:58:01.222Z,11.73
2019-02-03T13:00:37.308Z,12.23
2019-02-03T13:03:07.631Z,13.23
2019-02-03T13:05:36.416Z,11.67
2019-02-03T13:08:06.293Z,11.60
2019-02-03T13:10:36.719Z,14.20
2019-02-03T13:13:06.570Z,11.97
2019-02-03T13:15:37.831Z,11.80
2019-02-03T13:18:07.589Z,13.63
2019-02-03T13:20:36.523Z,12.67
2019-02-03T13:23:05.888Z,12.30
2019-02-03T13:25:34.629Z,13.70
2019-02-03T13:28:03.376Z,12.00
2019-02-03T13:30:34.443Z,11.70
2019-02-03T13:33:02.832Z,11.53
2019-02-03T13:35:31.303Z,11.90
2019-02-03T13:37:59.962Z,12.47
2019-02-03T13:40:28.778Z,12.17
2019-02-03T13:42:57.178Z,12.87
2019-02-03T13:45:27.213Z,13.00
2019-02-03T13:47:58.424Z,11.23
2019-02-03T13:50:28.154Z,11.77
2019-02-03T13:52:57.451Z,12.00
2019-02-03T13:55:26.962Z,11.40
2019-02-03T13:57:56.018Z,13.00
2019-02-03T14:00:27.400Z,12.90
2019-02-03T14:02:56.141Z,13.13
2019-02-03T14:05:24.669Z,11.90
2019-02-03T14:07:53.626Z,11.83
2019-02-03T14:10:28.021Z,14.70
2019-02-03T14:12:57.264Z,11.20
2019-02-03T14:15:26.285Z,13.77
2019-02-03T14:17:54.989Z,14.43
2019-02-03T14:20:28.483Z,12.70
2019-02-03T14:22:57.624Z,11.00
2019-02-03T14:25:26.804Z,11.60
2019-02-03T14:27:55.466Z,12.60
2019-02-03T14:30:40.049Z,13.13
2019-02-03T14:33:00.000Z,11.43
2019-02-03T14:35:28.737Z,11.90
2019-02-03T14:37:57.188Z,11.30
2019-02-03T14:40:26.130Z,11.53
2019-02-03T14:43:01.905Z,12.10
2019-02-03T14:45:27.629Z,11.90
2019-02-03T14:47:56.121Z,12.40
2019-02-03T14:50:26.277Z,11.50
2019-02-03T14:52:57.418Z,11.57
2019-02-03T14:55:28.952Z,11.73
2019-02-03T14:57:57.807Z,12.07
2019-02-03T15:00:38.080Z,12.23
2019-02-03T15:03:09.382Z,12.63
2019-02-03T15:05:38.004Z,15.63
2019-02-03T15:08:07.490Z,14.27
2019-02-03T15:10:36.237Z,14.63
2019-02-03T15:13:13.076Z,14.83
2019-02-03T15:15:36.513Z,15.67
2019-02-03T15:18:05.463Z,14.57
2019-02-03T15:20:33.934Z,14.27
2019-02-03T15:23:02.393Z,15.40
2019-02-03T15:25:30.971Z,14.83
2019-02-03T15:27:59.611Z,14.93
2019-02-03T15:30:37.295Z,13.80
2019-02-03T15:33:06.045Z,14.53
2019-02-03T15:35:34.501Z,14.23
2019-02-03T15:38:03.293Z,15.00
2019-02-03T15:40:31.711Z,14.97
2019-02-03T15:43:00.479Z,14.40
2019-02-03T15:45:29.154Z,15.20
2019-02-03T15:47:57.549Z,15.90
2019-02-03T15:50:30.847Z,14.47
2019-02-03T15:53:00.428Z,15.83
2019-02-03T15:55:32.054Z,14.90
2019-02-03T15:58:00.854Z,14.33
2019-02-03T16:00:34.755Z,15.87
2019-02-03T16:03:03.325Z,14.47
2019-02-03T16:05:31.845Z,14.60
2019-02-03T16:08:00.442Z,15.20
2019-02-03T16:10:29.297Z,15.43
2019-02-03T16:12:57.695Z,14.87
2019-02-03T16:15:26.188Z,14.53
2019-02-03T16:17:54.644Z,14.60
2019-02-03T16:20:28.609Z,14.23
2019-02-03T16:22:55.552Z,15.37
2019-02-03T16:25:23.937Z,15.20
2019-02-03T16:27:52.384Z,14.07
2019-02-03T16:30:33.207Z,14.53
2019-02-03T16:33:02.050Z,14.27
2019-02-03T16:35:30.727Z,19.50
2019-02-03T16:37:59.356Z,13.40
2019-02-03T16:40:30.083Z,13.67
2019-02-03T16:42:58.552Z,13.30
2019-02-03T16:45:27.076Z,13.30
2019-02-03T16:47:56.024Z,13.67
2019-02-03T16:50:27.074Z,17.00
2019-02-03T16:52:56.166Z,17.13
2019-02-03T16:55:24.629Z,17.93
2019-02-03T16:57:53.152Z,16.80
2019-02-03T17:00:27.199Z,14.20
2019-02-03T17:02:56.028Z,16.73
2019-02-03T17:05:30.283Z,14.17
2019-02-03T17:08:01.264Z,16.80
2019-02-03T17:10:30.019Z,16.80
2019-02-03T17:12:59.746Z,18.27
2019-02-03T17:15:30.614Z,16.17
2019-02-03T17:17:59.631Z,16.23
2019-02-03T17:20:28.383Z,14.20
2019-02-03T17:22:56.961Z,15.30
2019-02-03T17:25:37.767Z,13.73
2019-02-03T17:28:06.694Z,13.70
2019-02-03T17:30:35.537Z,12.50
2019-02-03T17:33:04.787Z,15.23
2019-02-03T17:35:35.603Z,13.97
2019-02-03T17:38:04.496Z,13.17
2019-02-03T17:40:32.986Z,14.37
2019-02-03T17:43:01.435Z,16.00
2019-02-03T17:45:29.951Z,13.67
2019-02-03T17:47:58.343Z,14.10
2019-02-03T17:50:29.566Z,15.00
2019-02-03T17:52:58.205Z,14.77
2019-02-03T17:55:29.292Z,14.97
2019-02-03T17:57:58.148Z,15.77
2019-02-03T18:00:38.820Z,16.70
2019-02-03T18:03:07.781Z,15.47
2019-02-03T18:05:36.169Z,14.70
2019-02-03T18:08:06.968Z,16.07
2019-02-03T18:10:35.750Z,13.90
2019-02-03T18:13:04.774Z,14.20
2019-02-03T18:15:33.168Z,15.90
2019-02-03T18:18:01.558Z,17.10
2019-02-03T18:20:30.702Z,16.17
2019-02-03T18:22:59.079Z,16.07
2019-02-03T18:25:27.785Z,18.73
2019-02-03T18:27:56.491Z,18.20
2019-02-03T18:30:26.995Z,18.27
2019-02-03T18:32:57.300Z,19.03
2019-02-03T18:35:25.761Z,18.17
2019-02-03T18:37:57.096Z,18.37
2019-02-03T18:40:25.497Z,18.33
2019-02-03T18:42:54.053Z,18.60
2019-02-03T18:45:24.788Z,19.17
2019-02-03T18:47:53.291Z,17.83
2019-02-03T18:50:23.147Z,19.40
2019-02-03T18:52:52.234Z,19.80
2019-02-03T18:55:23.842Z,19.80
2019-02-03T18:57:52.227Z,21.00
2019-02-03T19:00:29.526Z,21.33
2019-02-03T19:02:58.147Z,21.03
2019-02-03T19:05:29.244Z,21.33
2019-02-03T19:07:57.704Z,21.13
2019-02-03T19:10:27.227Z,18.73
2019-02-03T19:12:55.769Z,19.20
2019-02-03T19:15:27.007Z,19.13
2019-02-03T19:17:55.676Z,20.83
2019-02-03T19:20:27.152Z,22.60
2019-02-03T19:22:55.719Z,21.10
2019-02-03T19:25:24.638Z,19.77
2019-02-03T19:27:53.171Z,20.23
2019-02-03T19:30:23.596Z,21.63
2019-02-03T19:32:52.784Z,25.27
2019-02-03T19:35:26.850Z,20.60
2019-02-03T19:37:55.238Z,21.37
2019-02-03T19:40:29.225Z,21.87
2019-02-03T19:42:57.761Z,21.93
2019-02-03T19:45:31.118Z,21.77
2019-02-03T19:47:59.700Z,21.97
2019-02-03T19:50:34.302Z,21.60
2019-02-03T19:53:02.994Z,20.43
2019-02-03T19:55:31.545Z,21.70
2019-02-03T19:58:00.601Z,21.03
2019-02-03T20:00:34.657Z,22.90
2019-02-03T20:03:03.592Z,21.73
2019-02-03T20:05:32.057Z,21.80
2019-02-03T20:08:00.506Z,21.90
2019-02-03T20:10:30.650Z,20.23
2019-02-03T20:13:01.674Z,21.23
2019-02-03T20:15:29.681Z,21.77
2019-02-03T20:17:58.271Z,20.03
2019-02-03T20:20:35.735Z,20.70
2019-02-03T20:23:06.624Z,20.23
2019-02-03T20:25:35.171Z,21.33
2019-02-03T20:28:04.376Z,20.40
2019-02-03T20:30:38.520Z,20.27
2019-02-03T20:33:03.188Z,19.40
2019-02-03T20:35:31.665Z,20.97
2019-02-03T20:38:00.749Z,22.70
2019-02-03T20:40:34.738Z,20.60
2019-02-03T20:43:03.326Z,22.40
2019-02-03T20:45:32.124Z,24.00
2019-02-03T20:48:00.646Z,22.17
2019-02-03T20:50:29.041Z,21.10
2019-02-03T20:52:59.659Z,22.70
2019-02-03T20:55:28.192Z,22.07
2019-02-03T20:57:56.683Z,22.20
2019-02-03T21:00:36.763Z,21.73
2019-02-03T21:03:06.557Z,22.07
2019-02-03T21:05:35.657Z,19.57
2019-02-03T21:08:04.656Z,20.73
2019-02-03T21:10:33.075Z,20.10
2019-02-03T21:13:10.792Z,22.20
2019-02-03T21:15:33.951Z,20.00
2019-02-03T21:18:01.831Z,21.00
2019-02-03T21:20:32.991Z,20.97
2019-02-03T21:23:01.546Z,19.77
2019-02-03T21:25:30.041Z,23.10
2019-02-03T21:27:58.518Z,23.07
2019-02-03T21:30:37.992Z,22.43
2019-02-03T21:33:06.622Z,21.33
2019-02-03T21:35:35.466Z,24.13
2019-02-03T21:38:04.522Z,20.97
2019-02-03T21:40:33.236Z,23.10
2019-02-03T21:43:01.641Z,24.20
2019-02-03T21:45:30.394Z,23.87
2019-02-03T21:47:59.082Z,25.67
2019-02-03T21:50:29.939Z,22.53
2019-02-03T21:52:58.577Z,24.07
2019-02-03T21:55:27.549Z,25.27
2019-02-03T21:57:56.215Z,23.90
2019-02-03T22:00:28.284Z,24.30
2019-02-03T22:02:56.667Z,22.67
2019-02-03T22:05:25.511Z,22.33
2019-02-03T22:07:53.956Z,23.23
2019-02-03T22:10:25.448Z,23.23
2019-02-03T22:12:54.243Z,24.80
2019-02-03T22:15:22.997Z,25.20
2019-02-03T22:17:52.393Z,24.30
2019-02-03T22:20:23.065Z,24.00
2019-02-03T22:22:51.534Z,24.07
2019-02-03T22:25:19.994Z,24.97
2019-02-03T22:27:49.040Z,25.30
2019-02-03T22:30:20.073Z,26.37
2019-02-03T22:32:48.563Z,26.53
2019-02-03T22:35:17.230Z,25.37
2019-02-03T22:37:45.613Z,24.30
2019-02-03T22:40:16.685Z,23.87
2019-02-03T22:42:45.259Z,23.97
2019-02-03T22:45:22.520Z,25.27
2019-02-03T22:47:51.059Z,25.13
2019-02-03T22:50:24.131Z,25.43
2019-02-03T22:52:52.789Z,24.70
2019-02-03T22:55:21.374Z,24.17
2019-02-03T22:57:49.791Z,24.27
2019-02-03T23:00:31.845Z,24.87
2019-02-03T23:03:00.533Z,24.47
2019-02-03T23:05:29.537Z,23.70
2019-02-03T23:07:58.032Z,25.23
2019-02-03T23:10:26.499Z,23.67
2019-02-03T23:12:54.983Z,25.30
2019-02-03T23:15:23.385Z,24.90
2019-02-03T23:17:51.767Z,23.13
2019-02-03T23:20:20.716Z,22.00
2019-02-03T23:22:49.401Z,23.03
2019-02-03T23:25:18.097Z,23.40
2019-02-03T23:27:47.192Z,23.13
2019-02-03T23:30:17.404Z,23.80
2019-02-03T23:32:45.869Z,24.07
2019-02-03T23:35:14.719Z,23.87
2019-02-03T23:37:43.103Z,24.67
2019-02-03T23:40:14.373Z,26.50
2019-02-03T23:42:43.088Z,29.53
2019-02-03T23:45:13.603Z,24.70
2019-02-03T23:47:41.998Z,25.53
2019-02-03T23:50:14.067Z,25.50
2019-02-03T23:52:42.556Z,26.20
2019-02-03T23:55:11.338Z,25.17
2019-02-03T23:57:40.129Z,26.10
